Time;durP1;ratioP1;P1;durP2;ratioP2;P2;SDS_P1;SDS_P2;PMS_P1;PMS_P2;Temp;Humidity;BMP_temperature;BMP_pressure;BME280_temperature;BME280_humidity;BME280_pressure;Samples;Min_cycle;Max_cycle;Signal;HPM_P1;HPM_P2
2022/05/12 00:00:16;;;;;;;3.75;3.33;;;;;;;12.89;59.49;95275.03;5090495;28;20051;-72
2022/05/12 00:02:41;;;;;;;4.00;3.53;;;;;;;12.92;59.34;95280.00;5123089;27;20040;-72
2022/05/12 00:05:07;;;;;;;3.92;3.00;;;;;;;12.96;59.30;95276.19;5110720;28;20039;-72
2022/05/12 00:07:33;;;;;;;4.03;3.20;;;;;;;12.96;59.32;95283.19;5109273;28;20104;-72
2022/05/12 00:09:58;;;;;;;3.60;2.90;;;;;;;12.94;59.23;95272.06;5111854;28;20035;-72
2022/05/12 00:12:24;;;;;;;4.28;3.33;;;;;;;12.88;59.73;95273.41;5102114;28;20024;-72
2022/05/12 00:14:49;;;;;;;3.65;3.00;;;;;;;12.90;59.61;95276.72;5107053;28;20409;-73
2022/05/12 00:17:15;;;;;;;3.92;3.25;;;;;;;12.83;59.74;95275.56;5090162;28;20425;-72
2022/05/12 00:19:40;;;;;;;4.72;3.50;;;;;;;12.80;59.93;95280.22;5108043;27;20035;-72
2022/05/12 00:22:05;;;;;;;4.78;3.60;;;;;;;12.64;60.34;95278.06;5091934;28;20036;-72
2022/05/12 00:24:31;;;;;;;3.83;3.25;;;;;;;12.69;60.18;95268.91;5089857;28;20032;-72
2022/05/12 00:26:56;;;;;;;3.92;3.33;;;;;;;12.64;60.72;95271.06;5089931;28;20086;-72
2022/05/12 00:29:22;;;;;;;4.15;3.10;;;;;;;12.53;60.69;95265.94;5090094;28;20024;-72
2022/05/12 00:31:47;;;;;;;5.03;3.30;;;;;;;12.49;60.78;95265.38;5090162;28;20032;-72
2022/05/12 00:34:14;;;;;;;5.00;3.67;;;;;;;12.48;60.98;95263.72;5065001;28;20032;-72
2022/05/12 00:36:40;;;;;;;4.93;3.10;;;;;;;12.30;61.37;95257.41;5091727;28;20042;-72
2022/05/12 00:39:05;;;;;;;5.13;3.47;;;;;;;12.35;61.31;95260.47;5110314;28;20035;-72
2022/05/12 00:41:31;;;;;;;4.57;3.10;;;;;;;12.36;61.32;95259.50;5092913;28;20042;-72
2022/05/12 00:43:59;;;;;;;4.07;3.25;;;;;;;12.27;61.53;95258.50;5093225;28;20023;-73
2022/05/12 00:46:35;;;;;;;3.97;3.30;;;;;;;12.26;61.49;95264.66;5093580;28;20031;-72
2022/05/12 00:49:05;;;;;;;4.45;3.40;;;;;;;12.23;61.90;95266.69;5075333;28;20036;-72
2022/05/12 00:51:40;;;;;;;5.25;3.47;;;;;;;11.98;62.36;95258.28;5123278;27;20400;-72
2022/05/12 00:54:17;;;;;;;4.18;3.45;;;;;;;12.00;62.60;95265.97;5073544;28;20055;-72
2022/05/12 00:56:44;;;;;;;4.35;3.47;;;;;;;12.01;62.42;95265.03;5075501;28;20070;-72
2022/05/12 00:59:11;;;;;;;4.43;3.30;;;;;;;12.07;62.38;95278.38;5106540;28;20054;-72
2022/05/12 01:01:37;;;;;;;4.13;3.13;;;;;;;12.12;62.09;95280.59;5088984;28;20055;-71
2022/05/12 01:04:03;;;;;;;3.72;3.13;;;;;;;12.20;61.69;95277.34;5106083;28;20427;-72
2022/05/12 01:06:28;;;;;;;4.45;3.38;;;;;;;12.13;61.92;95286.63;5093237;28;20066;-72
2022/05/12 01:08:54;;;;;;;4.10;3.35;;;;;;;11.94;62.58;95288.13;5097210;28;20034;-72
2022/05/12 01:11:19;;;;;;;4.15;3.28;;;;;;;11.90;62.54;95281.50;5077425;28;20088;-72
2022/05/12 01:13:49;;;;;;;4.15;3.25;;;;;;;11.87;62.38;95284.38;5110282;28;20057;-72
2022/05/12 01:16:37;;;;;;;4.78;3.35;;;;;;;11.82;62.82;95294.28;5110323;28;20490;-72
2022/05/12 01:19:02;;;;;;;4.93;3.53;;;;;;;11.72;63.04;95285.56;5108244;28;20027;-72
2022/05/12 01:21:28;;;;;;;4.25;3.40;;;;;;;11.88;62.65;95293.00;5080137;28;20059;-72
2022/05/12 01:23:53;;;;;;;4.32;3.35;;;;;;;11.87;62.54;95284.38;5096907;28;20404;-72
2022/05/12 01:26:19;;;;;;;3.65;3.28;;;;;;;11.85;62.42;95275.81;5095500;28;20165;-72
2022/05/12 01:28:44;;;;;;;3.67;3.00;;;;;;;11.86;62.59;95290.50;5110303;28;20028;-72
2022/05/12 01:31:16;;;;;;;3.85;3.30;;;;;;;11.86;62.66;95287.91;5094799;28;20089;-72
2022/05/12 01:33:42;;;;;;;4.05;3.53;;;;;;;11.81;62.94;95284.81;5099060;28;20388;-72
2022/05/12 01:36:07;;;;;;;4.38;3.40;;;;;;;11.68;63.28;95287.59;5115183;28;20027;-72
2022/05/12 01:38:32;;;;;;;4.00;3.60;;;;;;;11.46;63.90;95280.66;5096686;28;20020;-72
2022/05/12 01:40:58;;;;;;;5.05;3.90;;;;;;;11.40;64.22;95283.72;5096585;28;20035;-72
2022/05/12 01:43:23;;;;;;;4.43;3.30;;;;;;;11.34;64.65;95289.44;5114799;28;20024;-72
2022/05/12 01:45:49;;;;;;;4.35;3.92;;;;;;;11.19;64.80;95279.25;5079644;28;20031;-72
2022/05/12 01:48:15;;;;;;;3.97;3.58;;;;;;;11.19;64.81;95275.81;5093294;28;20020;-72
2022/05/12 01:50:41;;;;;;;4.05;3.65;;;;;;;11.21;64.66;95283.53;5109896;28;20062;-72
2022/05/12 01:53:09;;;;;;;4.10;3.63;;;;;;;11.21;64.59;95284.34;5109872;28;20039;-72
2022/05/12 01:55:35;;;;;;;5.85;3.50;;;;;;;11.10;65.08;95279.16;5126428;27;20038;-72
2022/05/12 01:58:00;;;;;;;4.50;3.42;;;;;;;11.10;65.45;95287.78;5108340;28;20429;-72
2022/05/12 02:00:27;;;;;;;5.63;3.90;;;;;;;11.05;65.57;95295.09;5126733;27;20405;-72
2022/05/12 02:02:52;;;;;;;3.50;3.20;;;;;;;10.94;65.83;95293.31;5092824;28;20089;-72
2022/05/12 02:05:18;;;;;;;4.13;3.70;;;;;;;10.95;65.66;95291.56;5077631;28;20134;-72
2022/05/12 02:07:45;;;;;;;4.38;3.85;;;;;;;10.99;65.75;95285.16;5075836;28;20047;-72
2022/05/12 02:10:13;;;;;;;4.93;3.50;;;;;;;10.96;65.50;95294.03;5059215;28;20135;-72
2022/05/12 02:12:39;;;;;;;6.75;3.60;;;;;;;10.91;65.94;95287.53;5108912;28;20102;-72
2022/05/12 02:15:05;;;;;;;4.97;3.85;;;;;;;10.95;65.79;95294.16;5095976;28;20420;-72
2022/05/12 02:17:31;;;;;;;4.30;3.90;;;;;;;10.94;65.56;95292.50;5112965;28;20062;-72
2022/05/12 02:19:56;;;;;;;4.57;3.90;;;;;;;10.94;65.53;95295.09;5081675;28;20040;-72
2022/05/12 02:22:22;;;;;;;4.30;3.72;;;;;;;10.91;65.84;95308.31;5127268;27;20024;-72
2022/05/12 02:24:47;;;;;;;4.20;3.80;;;;;;;10.94;65.83;95306.31;5106284;28;20040;-72
2022/05/12 02:27:13;;;;;;;4.80;3.40;;;;;;;10.88;65.93;95311.97;5082528;28;20047;-72
2022/05/12 02:29:38;;;;;;;4.60;3.78;;;;;;;10.93;65.89;95307.25;5110072;28;20024;-72
2022/05/12 02:32:04;;;;;;;4.75;3.90;;;;;;;10.99;65.91;95311.16;5112620;28;20035;-72
2022/05/12 02:34:29;;;;;;;5.40;3.70;;;;;;;11.00;65.66;95312.81;5091437;28;20057;-72
2022/05/12 02:37:00;;;;;;;4.80;3.70;;;;;;;11.02;65.46;95295.34;5092117;28;20032;-71
2022/05/12 02:39:27;;;;;;;5.50;3.97;;;;;;;11.15;65.34;95316.03;5076106;28;20020;-72
2022/05/12 02:41:53;;;;;;;4.28;3.80;;;;;;;10.95;65.74;95299.38;5102528;28;20511;-71
2022/05/12 02:44:18;;;;;;;4.07;3.67;;;;;;;11.03;65.69;95304.81;5095488;28;20031;-71
2022/05/12 02:46:44;;;;;;;3.97;3.58;;;;;;;10.95;65.73;95301.97;5077440;28;20591;-72
2022/05/12 02:49:09;;;;;;;4.10;3.55;;;;;;;10.94;65.67;95310.69;5125806;27;20024;-71
2022/05/12 02:51:35;;;;;;;4.60;4.00;;;;;;;10.98;65.69;95309.53;5092065;28;20036;-71
2022/05/12 02:54:00;;;;;;;4.80;3.40;;;;;;;10.93;65.28;95302.06;5108719;28;20525;-72
2022/05/12 02:56:26;;;;;;;6.47;3.90;;;;;;;10.95;65.77;95317.56;5074774;28;20130;-72
2022/05/12 02:58:51;;;;;;;4.25;3.58;;;;;;;10.87;65.59;95319.91;5102172;28;20032;-72
2022/05/12 03:01:17;;;;;;;3.90;3.50;;;;;;;10.88;65.77;95313.75;5098608;28;20059;-72
2022/05/12 03:03:42;;;;;;;5.20;3.97;;;;;;;10.87;65.79;95319.91;5074705;28;20020;-72
2022/05/12 03:06:07;;;;;;;3.95;3.50;;;;;;;10.83;65.99;95313.28;5108250;28;20413;-72
2022/05/12 03:08:33;;;;;;;4.82;3.80;;;;;;;10.81;66.27;95309.97;5094887;28;20481;-72
2022/05/12 03:10:58;;;;;;;4.65;3.58;;;;;;;10.80;66.35;95322.13;5111756;28;20044;-72
2022/05/12 03:13:24;;;;;;;4.40;3.80;;;;;;;10.76;65.98;95312.94;5111898;28;20035;-72
2022/05/12 03:15:49;;;;;;;4.47;3.80;;;;;;;10.85;65.90;95319.19;5107838;28;20028;-72
2022/05/12 03:18:14;;;;;;;4.55;3.90;;;;;;;10.76;66.43;95319.91;5091448;28;20473;-72
2022/05/12 03:20:40;;;;;;;4.00;3.45;;;;;;;10.80;66.05;95323.91;5123557;27;20032;-72
2022/05/12 03:23:05;;;;;;;3.70;3.30;;;;;;;10.78;66.10;95323.19;5106632;28;20032;-72
2022/05/12 03:25:31;;;;;;;3.92;3.53;;;;;;;10.83;65.88;95331.47;5074166;28;20035;-72
2022/05/12 03:27:57;;;;;;;4.10;3.70;;;;;;;10.70;66.11;95331.59;5104375;28;20020;-71
2022/05/12 03:30:23;;;;;;;5.65;3.80;;;;;;;10.71;66.62;95333.22;5076143;28;20055;-72
2022/05/12 03:32:49;;;;;;;4.28;3.63;;;;;;;10.62;66.46;95319.16;5112686;28;20119;-72
2022/05/12 03:35:14;;;;;;;6.20;3.78;;;;;;;10.74;66.97;95344.22;5110956;28;20119;-72
2022/05/12 03:37:41;;;;;;;4.80;3.45;;;;;;;10.71;66.69;95339.25;5093518;28;20110;-71
2022/05/12 03:40:07;;;;;;;4.85;3.45;;;;;;;10.78;66.24;95347.44;5107787;28;20047;-72
2022/05/12 03:42:33;;;;;;;6.47;3.55;;;;;;;10.68;66.36;95341.25;5090649;28;20119;-72
2022/05/12 03:44:59;;;;;;;4.60;3.50;;;;;;;10.74;66.46;95354.59;5090781;28;20474;-72
2022/05/12 03:47:30;;;;;;;6.00;3.88;;;;;;;10.71;66.58;95354.00;5101959;28;20042;-72
2022/05/12 03:50:01;;;;;;;4.43;3.70;;;;;;;10.65;66.56;95354.47;5090536;28;20115;-72
2022/05/12 03:52:26;;;;;;;;;;;;;;;10.76;66.59;95369.28;5105492;28;20020;-72
2022/05/12 03:54:52;;;;;;;5.28;3.20;;;;;;;10.75;66.93;95371.03;5109426;28;19927;-72
2022/05/12 03:57:18;;;;;;;3.95;3.35;;;;;;;10.73;66.38;95362.53;5112242;28;20034;-72
2022/05/12 03:59:44;;;;;;;3.85;3.53;;;;;;;10.87;66.29;95369.28;5107332;28;20065;-71
2022/05/12 04:02:10;;;;;;;4.15;3.28;;;;;;;10.91;65.95;95365.50;5093565;28;20498;-71
2022/05/12 04:04:35;;;;;;;3.88;3.13;;;;;;;11.02;66.38;95367.31;5093609;28;20051;-72
2022/05/12 04:07:01;;;;;;;4.30;3.90;;;;;;;11.51;64.31;95368.75;5091785;28;20456;-72
2022/05/12 04:09:27;;;;;;;4.85;3.63;;;;;;;12.02;61.33;95379.47;5093781;28;20497;-72
2022/05/12 04:11:52;;;;;;;6.75;3.90;;;;;;;12.27;60.44;95380.09;5110666;28;20024;-71
2022/05/12 04:14:18;;;;;;;3.78;3.47;;;;;;;12.92;58.36;95371.25;5111974;28;20019;-71
2022/05/12 04:16:44;;;;;;;4.18;3.33;;;;;;;13.67;55.59;95376.31;5098066;28;20047;-72
2022/05/12 04:19:11;;;;;;;3.50;3.20;;;;;;;14.17;54.37;95358.03;5107093;28;20031;-72
2022/05/12 04:21:37;;;;;;;4.78;3.13;;;;;;;14.85;52.41;95361.50;5107745;28;20501;-72
2022/05/12 04:24:06;;;;;;;3.97;3.00;;;;;;;15.24;50.81;95350.94;5107175;28;20058;-72
2022/05/12 04:26:36;;;;;;;3.60;3.30;;;;;;;15.88;49.33;95359.81;5124963;27;20559;-72
2022/05/12 04:29:02;;;;;;;5.18;3.20;;;;;;;16.40;47.77;95349.53;5093588;28;20023;-72
2022/05/12 04:31:28;;;;;;;3.53;2.80;;;;;;;16.97;46.54;95357.91;5082273;28;20123;-72
2022/05/12 04:36:37;;;;;;;3.35;3.05;;;;;;;17.75;44.69;95359.66;5104424;28;20182;-70
2022/05/12 04:39:03;;;;;;;4.15;2.90;;;;;;;18.17;43.50;95358.03;5105041;28;20028;-70
2022/05/12 04:41:29;;;;;;;3.22;2.75;;;;;;;18.49;42.76;95352.00;5089587;28;20040;-72
2022/05/12 04:43:55;;;;;;;4.80;2.83;;;;;;;19.07;42.24;95366.03;5092265;28;20024;-70
2022/05/12 04:46:20;;;;;;;3.30;2.67;;;;;;;19.42;41.92;95368.28;5106923;28;20032;-70
2022/05/12 04:48:46;;;;;;;5.78;2.80;;;;;;;19.64;41.15;95372.03;5099677;28;20024;-72
2022/05/12 04:51:11;;;;;;;4.90;3.28;;;;;;;19.91;41.35;95371.78;5093877;28;20093;-71
2022/05/12 04:53:36;;;;;;;6.75;3.08;;;;;;;20.00;41.85;95370.75;5091328;28;20024;-70
2022/05/12 04:56:02;;;;;;;3.95;3.08;;;;;;;19.33;43.36;95374.53;5110071;28;20032;-71
2022/05/12 04:58:27;;;;;;;5.22;3.47;;;;;;;18.84;44.03;95379.03;5110001;28;20032;-70
2022/05/12 05:00:53;;;;;;;7.03;3.60;;;;;;;18.71;44.16;95379.47;5109772;28;20578;-70
2022/05/12 05:03:20;;;;;;;5.97;3.97;;;;;;;18.54;44.59;95378.63;5110258;28;20043;-70
2022/05/12 05:05:46;;;;;;;7.07;4.25;;;;;;;18.30;45.44;95393.41;5110098;28;20031;-71
2022/05/12 05:08:16;;;;;;;6.55;4.10;;;;;;;18.03;45.85;95394.47;5093174;28;20032;-70
2022/05/12 05:10:41;;;;;;;6.67;4.20;;;;;;;18.05;46.46;95396.91;5093480;28;20073;-70
2022/05/12 05:13:07;;;;;;;12.88;4.75;;;;;;;18.04;45.98;95392.66;5109823;28;20016;-70
2022/05/12 05:15:32;;;;;;;5.15;4.00;;;;;;;18.09;45.95;95388.56;5111270;28;20032;-70
2022/05/12 05:17:58;;;;;;;9.43;4.10;;;;;;;18.19;45.72;95391.06;5109910;28;20092;-70
2022/05/12 05:20:25;;;;;;;5.05;4.20;;;;;;;18.12;46.03;95391.88;5111250;28;20032;-70
2022/05/12 05:22:50;;;;;;;11.40;4.20;;;;;;;18.17;46.06;95397.47;5092911;28;20432;-70
2022/05/12 05:25:16;;;;;;;5.10;3.92;;;;;;;18.19;45.94;95400.75;5109822;28;20024;-70
2022/05/12 05:27:42;;;;;;;6.75;4.30;;;;;;;17.95;46.25;95399.69;5092675;28;20039;-71
2022/05/12 05:30:10;;;;;;;6.47;4.50;;;;;;;17.70;46.69;95392.66;5109522;28;20447;-70
2022/05/12 05:32:36;;;;;;;8.27;4.28;;;;;;;17.59;47.03;95397.19;5109782;28;20032;-70
2022/05/12 05:35:01;;;;;;;8.77;4.10;;;;;;;17.49;47.25;95395.63;5109656;28;20523;-70
2022/05/12 05:37:27;;;;;;;8.15;4.22;;;;;;;17.38;47.31;95397.56;5110716;28;20024;-70
2022/05/12 05:39:52;;;;;;;6.82;4.50;;;;;;;17.47;47.64;95402.84;5110529;28;20089;-70
2022/05/12 05:42:19;;;;;;;6.75;3.97;;;;;;;17.64;47.81;95401.97;5110881;28;20023;-70
2022/05/12 05:44:47;;;;;;;8.13;4.50;;;;;;;17.61;47.69;95399.66;5109642;28;20046;-70
2022/05/12 05:47:13;;;;;;;9.13;4.35;;;;;;;17.55;48.26;95398.50;5109508;28;20476;-71
2022/05/12 05:49:38;;;;;;;10.60;3.85;;;;;;;17.62;47.63;95398.69;5107778;28;20024;-70
2022/05/12 05:54:49;;;;;;;8.05;4.28;;;;;;;17.57;47.94;95396.50;5107063;28;20455;-70
2022/05/12 05:57:14;;;;;;;8.82;3.70;;;;;;;17.57;47.92;95391.25;5113317;28;20182;-71
2022/05/12 05:59:40;;;;;;;8.85;4.07;;;;;;;17.67;48.09;95395.59;5088256;28;20472;-70
2022/05/12 06:02:05;;;;;;;7.03;4.15;;;;;;;17.69;47.62;95386.56;5093634;28;20055;-70
2022/05/12 06:04:31;;;;;;;6.78;4.10;;;;;;;17.81;47.35;95393.22;5109505;28;20028;-70
2022/05/12 06:06:57;;;;;;;7.50;4.40;;;;;;;17.79;47.80;95392.53;5094638;28;20032;-70
2022/05/12 06:09:23;;;;;;;6.55;4.43;;;;;;;17.75;48.12;95388.56;5104525;28;20024;-71
2022/05/12 06:11:49;;;;;;;8.05;4.07;;;;;;;17.70;48.54;95390.84;5076000;28;20579;-71
2022/05/12 06:14:14;;;;;;;6.65;4.15;;;;;;;17.77;48.83;95380.50;5093519;28;20020;-72
2022/05/12 06:16:40;;;;;;;7.88;4.55;;;;;;;17.91;48.66;95392.25;5089442;28;20028;-71
2022/05/12 06:19:05;;;;;;;6.63;4.35;;;;;;;18.01;48.54;95395.59;5101244;27;20481;-70
2022/05/12 06:21:30;;;;;;;9.15;4.70;;;;;;;18.02;48.40;95390.16;5099602;28;20097;-70
2022/05/12 06:23:56;;;;;;;11.45;4.43;;;;;;;18.10;48.50;95378.88;5092462;28;20489;-70
2022/05/12 06:26:22;;;;;;;6.90;4.63;;;;;;;18.21;48.01;95386.47;5109477;28;20028;-70
2022/05/12 06:28:48;;;;;;;6.60;4.05;;;;;;;18.11;48.15;95384.94;5092330;28;20038;-71
2022/05/12 06:31:15;;;;;;;7.47;4.32;;;;;;;18.22;48.12;95385.50;5093802;28;20036;-71
2022/05/12 06:33:41;;;;;;;7.90;3.85;;;;;;;18.38;47.13;95386.50;5092212;28;20028;-71
2022/05/12 06:36:08;;;;;;;5.55;4.10;;;;;;;18.39;47.73;95385.53;5092128;28;20028;-71
2022/05/12 06:38:34;;;;;;;8.57;3.95;;;;;;;18.41;47.18;95394.88;5109345;28;20035;-71
2022/05/12 06:41:00;;;;;;;10.45;4.40;;;;;;;18.39;46.92;95393.44;5123658;27;20024;-71
2022/05/12 06:43:26;;;;;;;8.30;4.32;;;;;;;18.39;46.93;95394.25;5125979;27;20116;-71
2022/05/12 06:45:51;;;;;;;7.72;3.70;;;;;;;18.57;47.41;95395.91;5109015;28;20103;-71
2022/05/12 06:48:17;;;;;;;5.70;3.97;;;;;;;18.74;46.13;95394.97;5092000;28;20016;-70
2022/05/12 06:50:42;;;;;;;13.25;4.32;;;;;;;18.77;46.03;95383.31;5093312;28;20032;-71
2022/05/12 06:53:08;;;;;;;5.22;3.97;;;;;;;18.80;46.10;95382.97;5108943;28;20512;-71
2022/05/12 06:55:33;;;;;;;9.02;4.28;;;;;;;18.85;46.08;95381.50;5125913;27;20043;-71
2022/05/12 06:57:58;;;;;;;5.57;3.75;;;;;;;18.97;45.98;95389.88;5125951;27;20089;-71
2022/05/12 07:00:24;;;;;;;10.98;3.70;;;;;;;19.08;45.90;95396.63;5125573;27;20055;-71
2022/05/12 07:02:49;;;;;;;8.75;4.20;;;;;;;19.20;45.26;95390.06;5125733;27;20066;-71
2022/05/12 07:05:17;;;;;;;9.13;3.83;;;;;;;19.17;44.37;95385.94;5108381;28;20032;-71
2022/05/12 07:07:43;;;;;;;5.43;3.65;;;;;;;19.11;44.53;95391.03;5108452;28;20036;-71
2022/05/12 07:10:09;;;;;;;4.03;3.35;;;;;;;19.12;43.67;95393.50;5074650;28;20379;-71
2022/05/12 07:12:34;;;;;;;5.53;3.40;;;;;;;19.13;44.16;95387.25;5108525;28;20031;-71
2022/05/12 07:15:00;;;;;;;7.20;3.50;;;;;;;19.27;44.01;95385.75;5074425;28;20055;-71
2022/05/12 07:17:25;;;;;;;7.38;3.63;;;;;;;19.34;44.04;95389.38;5091234;28;20028;-71
2022/05/12 07:19:52;;;;;;;7.13;3.50;;;;;;;19.48;43.69;95389.69;5091256;28;20512;-71
2022/05/12 07:27:45;;;;;;;5.47;4.00;;;;;;;19.60;42.38;95375.97;5092488;28;20027;-71
2022/05/12 07:30:11;;;;;;;4.15;3.22;;;;;;;19.60;44.03;95378.59;5108062;28;20044;-71
2022/05/12 07:32:37;;;;;;;8.95;3.95;;;;;;;19.68;44.13;95372.53;5125223;27;20054;-71
2022/05/12 07:35:05;;;;;;;6.65;4.00;;;;;;;19.90;42.19;95378.88;5092088;28;20049;-71
2022/05/12 07:37:30;;;;;;;8.60;4.00;;;;;;;19.83;42.95;95370.81;5091015;28;20032;-71
2022/05/12 07:39:56;;;;;;;6.05;3.85;;;;;;;19.97;43.06;95371.09;5124993;27;20039;-71
2022/05/12 07:42:21;;;;;;;4.47;3.85;;;;;;;20.12;43.54;95368.56;5124930;27;20047;-71
2022/05/12 07:44:47;;;;;;;4.15;3.75;;;;;;;20.31;42.56;95368.13;5092001;28;20024;-71
2022/05/12 07:47:15;;;;;;;4.90;3.60;;;;;;;20.41;42.49;95365.25;5092059;28;20032;-71
2022/05/12 07:49:40;;;;;;;6.05;3.60;;;;;;;20.57;42.04;95362.56;5091955;28;20020;-71
2022/05/12 07:52:08;;;;;;;6.30;3.72;;;;;;;20.65;41.57;95362.50;5124754;27;20039;-71
2022/05/12 07:54:34;;;;;;;6.03;3.90;;;;;;;20.68;41.80;95366.63;5124845;27;20016;-71
2022/05/12 07:57:00;;;;;;;6.03;3.78;;;;;;;20.75;41.30;95356.97;5073752;28;20040;-71
2022/05/12 07:59:27;;;;;;;13.57;3.70;;;;;;;20.81;41.36;95353.66;5091836;28;20448;-71
2022/05/12 08:01:53;;;;;;;3.72;3.30;;;;;;;20.88;41.12;95359.84;5123675;27;20090;-71
2022/05/12 08:04:19;;;;;;;5.85;3.70;;;;;;;21.05;40.03;95359.72;5124440;27;20052;-71
2022/05/12 08:06:44;;;;;;;7.68;3.47;;;;;;;21.04;40.54;95352.81;5124344;27;20035;-71
2022/05/12 08:09:10;;;;;;;3.72;3.42;;;;;;;21.00;40.65;95354.97;5124540;27;20051;-71
2022/05/12 08:11:35;;;;;;;4.03;2.83;;;;;;;21.07;40.86;95361.19;5107512;28;20035;-71
2022/05/12 08:14:01;;;;;;;3.75;3.10;;;;;;;21.17;40.31;95363.56;5090424;28;20040;-71
2022/05/12 08:16:26;;;;;;;6.07;3.38;;;;;;;21.26;39.14;95351.94;5123785;27;20028;-71
2022/05/12 08:18:52;;;;;;;6.05;3.28;;;;;;;21.23;40.78;95352.28;5107436;28;20032;-71
2022/05/12 08:21:23;;;;;;;5.30;3.65;;;;;;;21.24;40.39;95348.63;5124319;27;20039;-71
2022/05/12 08:23:49;;;;;;;4.88;3.22;;;;;;;21.38;40.70;95342.59;5106750;28;20032;-71
2022/05/12 08:26:14;;;;;;;5.28;3.47;;;;;;;21.41;40.33;95344.84;5091695;28;20028;-71
2022/05/12 08:28:40;;;;;;;4.82;3.05;;;;;;;21.56;41.10;95351.97;5090059;28;20062;-71
2022/05/12 08:31:06;;;;;;;8.13;3.05;;;;;;;21.67;37.82;95346.22;5124108;27;20478;-71
2022/05/12 08:33:33;;;;;;;3.35;2.80;;;;;;;21.55;38.12;95323.91;5090098;28;20044;-71
2022/05/12 08:35:58;;;;;;;6.80;3.08;;;;;;;21.80;39.26;95332.38;5106806;28;20019;-71
2022/05/12 08:38:25;;;;;;;7.50;2.88;;;;;;;21.94;38.30;95336.00;5124048;27;20039;-71
2022/05/12 08:41:12;;;;;;;7.50;3.30;;;;;;;22.07;35.47;95334.34;5090912;28;20028;-71
2022/05/12 08:43:43;;;;;;;7.45;3.33;;;;;;;22.13;37.45;95342.56;5091104;28;20067;-71
2022/05/12 08:46:19;;;;;;;5.35;3.13;;;;;;;22.33;38.38;95340.16;5091354;28;20024;-71
2022/05/12 08:48:45;;;;;;;7.13;2.92;;;;;;;22.23;37.79;95333.34;5105351;28;20036;-71
2022/05/12 08:51:17;;;;;;;5.88;3.42;;;;;;;22.42;37.51;95333.72;5106986;28;20387;-71
2022/05/12 08:54:04;;;;;;;6.68;2.95;;;;;;;22.34;37.45;95328.56;5089534;28;20398;-71
2022/05/12 08:56:29;;;;;;;7.57;3.60;;;;;;;22.35;36.67;95335.50;5072844;28;20032;-71
2022/05/12 08:58:56;;;;;;;11.15;3.30;;;;;;;22.45;35.13;95328.06;5123794;28;20028;-71
2022/05/12 09:01:25;;;;;;;11.95;3.00;;;;;;;22.55;34.87;95323.28;5106300;28;20101;-71
2022/05/12 09:03:56;;;;;;;5.65;2.95;;;;;;;22.62;34.98;95331.28;5089708;28;20039;-71
2022/05/12 09:06:23;;;;;;;7.15;3.10;;;;;;;22.71;35.37;95324.88;5089809;28;20112;-71
2022/05/12 09:09:14;;;;;;;5.40;2.80;;;;;;;22.89;35.00;95325.22;5123574;28;20504;-71
2022/05/12 09:11:56;;;;;;;6.43;3.10;;;;;;;22.97;32.59;95319.81;5090703;28;20061;-71
2022/05/12 09:14:33;;;;;;;7.47;2.92;;;;;;;23.02;34.63;95326.38;5119615;28;20103;-71
2022/05/12 09:16:58;;;;;;;10.77;3.10;;;;;;;23.10;34.88;95316.47;5121474;28;20127;-71
2022/05/12 09:19:25;;;;;;;9.13;3.10;;;;;;;23.15;34.54;95326.47;5089451;28;20080;-71
2022/05/12 09:21:51;;;;;;;5.10;3.00;;;;;;;23.17;33.21;95327.09;5089413;28;20468;-71
2022/05/12 09:24:16;;;;;;;5.18;3.08;;;;;;;23.17;32.91;95329.75;5090732;28;20020;-71
2022/05/12 09:26:53;;;;;;;7.75;2.80;;;;;;;23.24;33.13;95325.34;5091045;28;20032;-71
2022/05/12 09:29:25;;;;;;;4.88;3.10;;;;;;;23.29;33.99;95327.38;5093941;28;20047;-71
2022/05/12 09:31:53;;;;;;;5.32;3.03;;;;;;;23.45;33.87;95327.09;5110448;28;20044;-71
2022/05/12 09:34:23;;;;;;;6.55;3.00;;;;;;;23.60;33.59;95327.81;5094690;28;20059;-71
2022/05/12 09:36:49;;;;;;;4.70;3.20;;;;;;;23.72;32.46;95327.28;5110239;28;20086;-71
2022/05/12 09:39:50;;;;;;;4.28;3.25;;;;;;;23.81;33.14;95326.91;5110381;28;20028;-71
2022/05/12 09:42:27;;;;;;;4.30;3.10;;;;;;;23.93;33.38;95327.19;5094442;28;20513;-71
2022/05/12 09:45:24;;;;;;;5.85;3.35;;;;;;;24.05;32.26;95327.44;5094371;28;20032;-72
2022/05/12 09:47:49;;;;;;;5.22;3.17;;;;;;;24.18;31.01;95324.84;5097172;28;20105;-71
2022/05/12 09:50:23;;;;;;;4.70;3.20;;;;;;;24.17;30.76;95320.53;5093112;28;20032;-71
2022/05/12 09:52:55;;;;;;;4.22;2.90;;;;;;;24.23;31.15;95318.91;5109094;28;20436;-71
2022/05/12 09:55:30;;;;;;;5.03;3.30;;;;;;;24.32;30.66;95317.72;5094346;28;20481;-71
2022/05/12 09:57:56;;;;;;;4.22;3.10;;;;;;;24.27;30.27;95318.31;5125559;27;20066;-72
2022/05/12 10:00:40;;;;;;;5.53;3.00;;;;;;;24.19;31.95;95315.03;5126833;27;20401;-71
2022/05/12 10:09:07;;;;;;;5.38;3.10;;;;;;;24.14;31.01;95298.88;5094230;28;20047;-72
2022/05/12 10:12:06;;;;;;;3.83;3.45;;;;;;;24.15;30.66;95300.50;5094389;28;20118;-72
2022/05/12 10:14:59;;;;;;;3.72;3.08;;;;;;;24.34;28.84;95291.78;5112470;27;20304;-72
2022/05/12 10:17:32;;;;;;;3.20;2.90;;;;;;;24.27;29.97;95290.97;5121258;27;20040;-72
2022/05/12 10:20:01;;;;;;;4.88;3.00;;;;;;;24.29;30.36;95284.44;5126264;27;20024;-72
2022/05/12 10:22:29;;;;;;;4.05;3.00;;;;;;;24.37;29.81;95282.59;5108971;28;20036;-72
2022/05/12 10:25:13;;;;;;;5.10;3.30;;;;;;;24.39;30.08;95280.56;5109293;28;20032;-72
2022/05/12 10:27:49;;;;;;;4.00;2.92;;;;;;;24.48;29.79;95280.19;5126939;27;20036;-71
2022/05/12 10:30:34;;;;;;;4.57;3.20;;;;;;;24.49;30.16;95271.25;5126484;27;20028;-71
2022/05/12 10:33:17;;;;;;;4.20;3.08;;;;;;;24.56;30.48;95265.09;5093563;28;20074;-71
2022/05/12 10:36:12;;;;;;;7.22;3.22;;;;;;;24.63;30.43;95265.94;5123175;27;20028;-72
2022/05/12 10:38:44;;;;;;;5.20;3.00;;;;;;;24.71;29.88;95258.59;5116058;27;20055;-72
2022/05/12 10:41:22;;;;;;;5.97;2.90;;;;;;;24.74;28.48;95257.38;5108086;28;20107;-72
2022/05/12 10:44:13;;;;;;;4.80;3.15;;;;;;;24.64;28.13;95251.63;5092046;28;20036;-72
2022/05/12 10:46:38;;;;;;;;;;;;;;;24.47;29.06;95252.03;5126166;27;20056;-71
2022/05/12 10:49:23;;;;;;;3.70;3.07;;;;;;;24.38;29.55;95244.44;5093231;28;19965;-71
2022/05/12 10:52:03;;;;;;;4.60;2.63;;;;;;;24.41;29.42;95239.53;5108990;28;20042;-72
2022/05/12 10:55:10;;;;;;;5.03;2.95;;;;;;;24.46;30.19;95229.16;5091805;28;20035;-72
2022/05/12 10:57:36;;;;;;;3.10;2.80;;;;;;;24.62;29.85;95248.34;5091264;28;20051;-72
2022/05/12 11:00:12;;;;;;;6.63;2.80;;;;;;;24.64;28.36;95241.00;5092999;28;20398;-72
2022/05/12 11:02:42;;;;;;;6.32;3.08;;;;;;;24.66;29.24;95238.97;5125836;27;20044;-72
2022/05/12 11:05:13;;;;;;;6.85;2.47;;;;;;;24.75;26.33;95235.91;5093014;28;20029;-71
2022/05/12 11:07:59;;;;;;;3.35;2.30;;;;;;;24.73;25.60;95229.97;5125788;27;20410;-72
2022/05/12 11:10:31;;;;;;;3.42;2.75;;;;;;;24.79;26.64;95232.81;5093010;28;20032;-71
2022/05/12 11:13:19;;;;;;;3.55;2.40;;;;;;;24.82;27.25;95230.56;5108524;28;20051;-71
2022/05/12 11:16:09;;;;;;;4.63;2.47;;;;;;;24.86;26.83;95228.34;5124365;27;20516;-71
2022/05/12 11:18:50;;;;;;;3.05;2.58;;;;;;;24.93;27.28;95211.38;5110930;27;20572;-72
2022/05/12 11:21:25;;;;;;;4.88;2.60;;;;;;;25.04;26.97;95217.88;5089713;28;20409;-72
2022/05/12 11:24:02;;;;;;;4.18;2.53;;;;;;;25.06;27.50;95212.38;5107679;28;20493;-72
2022/05/12 11:26:52;;;;;;;5.10;2.33;;;;;;;25.18;27.36;95216.03;5123159;27;20405;-72
2022/05/12 11:29:48;;;;;;;4.97;2.50;;;;;;;25.29;26.83;95218.06;5107782;28;20178;-72
2022/05/12 11:32:43;;;;;;;3.65;2.67;;;;;;;25.38;26.19;95210.66;5120457;27;20414;-71
2022/05/12 11:35:17;;;;;;;4.75;2.53;;;;;;;25.36;26.52;95205.56;5122789;27;20036;-72
2022/05/12 11:37:43;;;;;;;2.83;2.17;;;;;;;25.50;23.78;95193.06;5107813;28;20028;-72
2022/05/12 11:40:13;;;;;;;5.13;2.25;;;;;;;25.36;23.57;95200.25;5092149;28;20024;-72
2022/05/12 11:46:17;;;;;;;2.60;2.10;;;;;;;25.12;25.98;95190.28;5099723;28;20046;-72
2022/05/12 11:49:07;;;;;;;2.80;2.25;;;;;;;25.08;24.34;95189.88;5091992;28;20036;-72
2022/05/12 11:51:51;;;;;;;5.88;2.25;;;;;;;25.04;25.20;95191.31;5086916;27;20043;-71
2022/05/12 11:54:36;;;;;;;3.72;2.22;;;;;;;25.01;24.83;95178.44;5091991;28;20031;-71
2022/05/12 11:57:02;;;;;;;3.70;2.10;;;;;;;25.06;25.92;95180.47;5106254;28;20569;-72
2022/05/12 11:59:33;;;;;;;3.97;2.30;;;;;;;25.12;26.26;95172.47;5124457;27;20028;-72
2022/05/12 12:02:04;;;;;;;3.40;2.40;;;;;;;25.15;25.82;95173.94;5091735;28;20143;-71